createdAt,value
2018-06-15T00:00:11.815Z,23.09
2018-06-15T00:02:40.074Z,23.09
2018-06-15T00:05:08.369Z,23.08
2018-06-15T00:07:36.621Z,23.08
2018-06-15T00:10:04.933Z,23.07
2018-06-15T00:12:33.192Z,23.06
2018-06-15T00:15:01.475Z,23.05
2018-06-15T00:17:29.747Z,23.04
2018-06-15T00:19:58.025Z,23.04
2018-06-15T00:22:26.276Z,23.03
2018-06-15T00:24:54.576Z,23.04
2018-06-15T00:27:22.868Z,23.02
2018-06-15T00:29:51.137Z,23.03
2018-06-15T00:32:19.401Z,23.01
2018-06-15T00:34:47.677Z,23.01
2018-06-15T00:37:15.942Z,23.01
2018-06-15T00:39:44.248Z,22.99
2018-06-15T00:42:12.497Z,23.00
2018-06-15T00:44:40.774Z,22.99
2018-06-15T00:47:09.057Z,22.99
2018-06-15T00:49:37.378Z,22.98
2018-06-15T00:52:05.780Z,22.97
2018-06-15T00:54:34.077Z,22.97
2018-06-15T00:57:13.707Z,22.96
2018-06-15T00:59:42.078Z,22.95
2018-06-15T01:02:10.401Z,22.95
2018-06-15T01:04:38.649Z,22.94
2018-06-15T01:07:06.978Z,22.94
2018-06-15T01:09:35.206Z,22.94
2018-06-15T01:12:03.480Z,22.94
2018-06-15T01:14:31.772Z,22.93
2018-06-15T01:17:00.049Z,22.93
2018-06-15T01:19:28.341Z,22.94
2018-06-15T01:21:56.606Z,22.94
2018-06-15T01:24:24.861Z,22.93
2018-06-15T01:26:53.313Z,22.91
2018-06-15T01:29:21.649Z,22.91
2018-06-15T01:31:49.915Z,22.90
2018-06-15T01:34:18.188Z,22.89
2018-06-15T01:36:46.469Z,22.89
2018-06-15T01:39:14.735Z,22.89
2018-06-15T01:41:43.018Z,22.89
2018-06-15T01:44:11.277Z,22.89
2018-06-15T01:46:39.602Z,22.89
2018-06-15T01:49:07.898Z,22.88
2018-06-15T01:51:36.161Z,22.87
2018-06-15T01:54:04.402Z,22.87
2018-06-15T01:56:32.688Z,22.87
2018-06-15T01:59:00.949Z,22.85
2018-06-15T02:01:29.334Z,22.85
2018-06-15T02:03:57.562Z,22.84
2018-06-15T02:06:25.809Z,22.84
2018-06-15T02:08:54.101Z,22.83
2018-06-15T02:11:23.829Z,22.83
2018-06-15T02:13:52.094Z,22.83
2018-06-15T02:16:20.382Z,22.82
2018-06-15T02:18:48.654Z,22.82
2018-06-15T02:21:16.942Z,22.80
2018-06-15T02:23:45.221Z,22.80
2018-06-15T02:26:13.498Z,22.80
2018-06-15T02:28:41.789Z,22.79
2018-06-15T02:31:10.050Z,22.78
2018-06-15T02:33:38.339Z,22.77
2018-06-15T02:36:06.585Z,22.77
2018-06-15T02:38:34.890Z,22.78
2018-06-15T02:41:03.146Z,22.76
2018-06-15T02:43:31.448Z,22.77
2018-06-15T02:45:59.714Z,22.76
2018-06-15T02:48:27.961Z,22.77
2018-06-15T02:50:56.253Z,22.79
2018-06-15T02:53:24.518Z,22.80
2018-06-15T02:55:52.830Z,22.82
2018-06-15T02:58:21.073Z,22.83
2018-06-15T03:00:49.350Z,22.83
2018-06-15T03:03:17.642Z,22.84
2018-06-15T03:05:45.907Z,22.85
2018-06-15T03:08:14.206Z,22.85
2018-06-15T03:10:42.483Z,22.85
2018-06-15T03:13:10.754Z,22.84
2018-06-15T03:15:39.011Z,22.85
2018-06-15T03:18:07.298Z,22.85
2018-06-15T03:20:35.590Z,22.85
2018-06-15T03:23:03.865Z,22.85
2018-06-15T03:25:32.117Z,22.84
2018-06-15T03:28:00.438Z,22.84
2018-06-15T03:30:28.870Z,22.83
2018-06-15T03:32:57.181Z,22.83
2018-06-15T03:35:25.449Z,22.83
2018-06-15T03:37:53.722Z,22.83
2018-06-15T03:40:21.999Z,22.83
2018-06-15T03:42:50.250Z,22.82
2018-06-15T03:45:18.557Z,22.82
2018-06-15T03:47:46.802Z,22.82
2018-06-15T03:50:15.130Z,22.82
2018-06-15T03:52:43.382Z,22.82
2018-06-15T03:55:11.769Z,22.82
2018-06-15T03:57:40.118Z,22.82
2018-06-15T04:00:08.405Z,22.82
2018-06-15T04:02:36.661Z,22.82
2018-06-15T04:05:04.992Z,22.82
2018-06-15T04:07:33.246Z,22.82
2018-06-15T04:10:01.621Z,22.82
2018-06-15T04:12:30.009Z,22.81
2018-06-15T04:14:58.265Z,22.81
2018-06-15T04:17:26.554Z,22.81
2018-06-15T04:19:54.810Z,22.82
2018-06-15T04:22:23.110Z,22.82
2018-06-15T04:24:51.369Z,22.82
2018-06-15T04:27:19.662Z,22.82
2018-06-15T04:29:47.914Z,22.80
2018-06-15T04:32:16.218Z,22.81
2018-06-15T04:34:44.463Z,22.81
2018-06-15T04:37:12.749Z,22.81
2018-06-15T04:39:41.038Z,22.81
2018-06-15T04:42:09.310Z,22.81
2018-06-15T04:44:37.585Z,22.82
2018-06-15T04:47:06.166Z,22.81
2018-06-15T04:49:34.562Z,22.81
2018-06-15T04:52:02.822Z,22.80
2018-06-15T04:54:31.221Z,22.78
2018-06-15T04:56:59.589Z,22.78
2018-06-15T04:59:28.087Z,22.76
2018-06-15T05:01:56.326Z,22.75
2018-06-15T05:04:24.621Z,22.74
2018-06-15T05:06:52.886Z,22.75
2018-06-15T05:09:21.161Z,22.73
2018-06-15T05:11:49.466Z,22.73
2018-06-15T05:14:17.729Z,22.73
2018-06-15T05:16:45.981Z,22.73
2018-06-15T05:19:14.277Z,22.74
2018-06-15T05:21:42.565Z,22.73
2018-06-15T05:24:10.833Z,22.73
2018-06-15T05:26:39.118Z,22.73
2018-06-15T05:29:07.389Z,22.73
2018-06-15T05:31:35.653Z,22.73
2018-06-15T05:34:03.926Z,22.73
2018-06-15T05:36:32.220Z,22.73
2018-06-15T05:39:00.474Z,22.73
2018-06-15T05:41:28.777Z,22.74
2018-06-15T05:43:57.029Z,22.73
2018-06-15T05:46:25.330Z,22.73
2018-06-15T05:48:53.886Z,22.74
2018-06-15T05:51:22.299Z,22.74
2018-06-15T05:53:50.570Z,22.75
2018-06-15T05:56:18.820Z,22.75
2018-06-15T05:58:47.106Z,22.76
2018-06-15T06:01:15.401Z,22.76
2018-06-15T06:03:43.650Z,22.75
2018-06-15T06:06:11.949Z,22.76
2018-06-15T06:08:40.194Z,22.77
2018-06-15T06:11:08.498Z,22.76
2018-06-15T06:13:36.755Z,22.76
2018-06-15T06:16:05.294Z,22.75
2018-06-15T06:18:33.717Z,22.75
2018-06-15T06:21:02.208Z,22.76
2018-06-15T06:23:30.494Z,22.74
2018-06-15T06:25:58.754Z,22.75
2018-06-15T06:28:27.051Z,22.76
2018-06-15T06:30:55.302Z,22.75
2018-06-15T06:33:23.609Z,22.77
2018-06-15T06:35:51.861Z,22.76
2018-06-15T06:38:20.158Z,22.75
2018-06-15T06:40:48.418Z,22.75
2018-06-15T06:43:16.719Z,22.75
2018-06-15T06:45:45.165Z,22.75
2018-06-15T06:48:13.405Z,22.75
2018-06-15T06:50:41.759Z,22.75
2018-06-15T06:53:09.994Z,22.74
2018-06-15T06:55:38.270Z,22.74
2018-06-15T06:58:06.576Z,22.73
2018-06-15T07:00:34.843Z,22.72
2018-06-15T07:03:03.129Z,22.70
2018-06-15T07:05:31.405Z,22.69
2018-06-15T07:07:59.673Z,22.66
2018-06-15T07:10:27.933Z,22.66
2018-06-15T07:12:56.260Z,22.65
2018-06-15T07:15:24.716Z,22.65
2018-06-15T07:17:52.973Z,22.64
2018-06-15T07:20:21.306Z,22.64
2018-06-15T07:22:49.747Z,22.64
2018-06-15T07:25:18.234Z,22.64
2018-06-15T07:27:46.606Z,22.64
2018-06-15T07:30:14.986Z,22.62
2018-06-15T07:32:43.249Z,22.62
2018-06-15T07:35:11.517Z,22.62
2018-06-15T07:37:39.814Z,22.64
2018-06-15T07:40:08.061Z,22.63
2018-06-15T07:42:36.378Z,22.64
2018-06-15T07:45:04.868Z,22.64
2018-06-15T07:47:33.335Z,22.65
2018-06-15T07:50:02.227Z,22.65
2018-06-15T07:52:30.527Z,22.66
2018-06-15T07:54:58.758Z,22.65
2018-06-15T07:57:27.054Z,22.65
2018-06-15T07:59:55.305Z,22.64
2018-06-15T08:02:23.858Z,22.64
2018-06-15T08:04:52.262Z,22.65
2018-06-15T08:07:20.549Z,22.65
2018-06-15T08:09:48.865Z,22.64
2018-06-15T08:12:17.317Z,22.65
2018-06-15T08:14:45.582Z,22.65
2018-06-15T08:17:14.499Z,22.65
2018-06-15T08:19:43.011Z,22.65
2018-06-15T08:22:11.450Z,22.66
2018-06-15T08:24:39.954Z,22.65
2018-06-15T08:27:08.210Z,22.66
2018-06-15T08:29:36.462Z,22.67
2018-06-15T08:32:04.757Z,22.68
2018-06-15T08:34:33.034Z,22.71
2018-06-15T08:37:01.290Z,22.71
2018-06-15T08:39:29.597Z,22.73
2018-06-15T08:41:57.841Z,22.74
2018-06-15T08:44:26.121Z,22.74
2018-06-15T08:46:54.418Z,22.75
2018-06-15T08:49:22.674Z,22.76
2018-06-15T08:51:51.005Z,22.76
2018-06-15T08:54:19.437Z,22.76
2018-06-15T08:56:47.706Z,22.75
2018-06-15T08:59:15.998Z,22.76
2018-06-15T09:01:44.280Z,22.75
2018-06-15T09:04:12.580Z,22.74
2018-06-15T09:06:41.037Z,22.74
2018-06-15T09:09:09.610Z,22.73
2018-06-15T09:11:38.109Z,22.73
2018-06-15T09:14:06.462Z,22.72
2018-06-15T09:16:34.749Z,22.70
2018-06-15T09:19:03.014Z,22.69
2018-06-15T09:21:31.306Z,22.70
2018-06-15T09:23:59.574Z,22.71
2018-06-15T09:26:27.867Z,22.70
2018-06-15T09:28:56.141Z,22.71
2018-06-15T09:31:24.405Z,22.71
2018-06-15T09:33:52.697Z,22.70
2018-06-15T09:36:20.954Z,22.72
2018-06-15T09:38:49.273Z,22.76
2018-06-15T09:41:17.810Z,22.75
2018-06-15T09:43:46.205Z,22.75
2018-06-15T09:46:14.468Z,22.76
2018-06-15T09:48:44.205Z,22.76
2018-06-15T09:51:13.586Z,22.77
2018-06-15T09:53:41.974Z,22.78
2018-06-15T09:56:10.226Z,22.77
2018-06-15T09:58:38.549Z,22.81
2018-06-15T10:01:10.178Z,22.84
2018-06-15T10:03:39.496Z,22.86
2018-06-15T10:06:07.847Z,22.89
2018-06-15T10:08:36.832Z,22.92
2018-06-15T10:11:05.665Z,22.99
2018-06-15T10:13:34.197Z,22.97
2018-06-15T10:16:02.584Z,22.93
2018-06-15T10:18:30.881Z,22.93
2018-06-15T10:20:59.136Z,22.95
2018-06-15T10:23:28.073Z,22.95
2018-06-15T10:25:56.620Z,22.96
2018-06-15T10:28:25.068Z,22.97
2018-06-15T10:30:53.501Z,22.97
2018-06-15T10:33:21.777Z,22.98
2018-06-15T10:35:50.062Z,22.99
2018-06-15T10:38:18.302Z,23.01
2018-06-15T10:40:46.599Z,23.03
2018-06-15T10:43:14.874Z,23.03
2018-06-15T10:45:43.406Z,23.02
2018-06-15T10:48:12.154Z,23.01
2018-06-15T10:50:40.822Z,23.02
2018-06-15T10:53:09.302Z,23.04
2018-06-15T10:55:37.673Z,23.03
2018-06-15T10:58:06.080Z,23.03
2018-06-15T11:00:34.440Z,23.04
2018-06-15T11:03:02.727Z,23.05
2018-06-15T11:05:30.986Z,23.02
2018-06-15T11:07:59.299Z,23.02
2018-06-15T11:10:27.554Z,23.00
2018-06-15T11:12:55.881Z,23.01
2018-06-15T11:15:24.289Z,23.01
2018-06-15T11:17:52.621Z,23.00
2018-06-15T11:20:21.062Z,23.00
2018-06-15T11:22:49.346Z,23.00
2018-06-15T11:25:17.622Z,22.98
2018-06-15T11:27:45.889Z,22.99
2018-06-15T11:30:14.174Z,23.00
2018-06-15T11:32:42.437Z,22.98
2018-06-15T11:35:10.717Z,22.99
2018-06-15T11:37:38.998Z,23.03
2018-06-15T11:40:07.293Z,23.03
2018-06-15T11:42:35.578Z,23.04
2018-06-15T11:45:04.018Z,23.06
2018-06-15T11:47:32.309Z,23.08
2018-06-15T11:50:00.561Z,23.09
2018-06-15T11:52:28.863Z,23.08
2018-06-15T11:54:57.138Z,23.06
2018-06-15T11:57:25.430Z,23.06
2018-06-15T11:59:56.219Z,23.06
2018-06-15T12:02:24.630Z,23.06
2018-06-15T12:04:52.897Z,23.06
2018-06-15T12:07:21.237Z,23.06
2018-06-15T12:09:49.681Z,23.07
2018-06-15T12:12:17.930Z,23.06
2018-06-15T12:14:46.203Z,23.04
2018-06-15T12:17:14.494Z,23.03
2018-06-15T12:19:42.779Z,23.04
2018-06-15T12:22:11.166Z,23.05
2018-06-15T12:24:39.513Z,23.04
2018-06-15T12:27:07.809Z,23.06
2018-06-15T12:29:36.121Z,23.07
2018-06-15T12:32:04.550Z,23.08
2018-06-15T12:34:32.844Z,23.09
2018-06-15T12:37:01.102Z,23.09
2018-06-15T12:39:29.394Z,23.09
2018-06-15T12:41:57.666Z,23.10
2018-06-15T12:44:26.213Z,23.11
2018-06-15T12:46:55.273Z,23.12
2018-06-15T12:49:23.733Z,23.13
2018-06-15T12:51:51.989Z,23.14
2018-06-15T12:54:20.289Z,23.14
2018-06-15T12:56:48.537Z,23.13
2018-06-15T12:59:16.914Z,23.13
2018-06-15T13:01:45.336Z,23.13
2018-06-15T13:04:13.566Z,23.13
2018-06-15T13:06:41.846Z,23.13
2018-06-15T13:09:11.091Z,23.13
2018-06-15T13:11:39.429Z,23.14
2018-06-15T13:14:07.762Z,23.14
2018-06-15T13:16:36.518Z,23.15
2018-06-15T13:19:05.017Z,23.15
2018-06-15T13:21:33.361Z,23.17
2018-06-15T13:24:01.632Z,23.15
2018-06-15T13:26:29.950Z,23.14
2018-06-15T13:28:58.402Z,23.15
2018-06-15T13:31:26.772Z,23.14
2018-06-15T13:33:55.317Z,23.13
2018-06-15T13:36:24.042Z,23.13
2018-06-15T13:38:52.322Z,23.12
2018-06-15T13:41:20.582Z,23.13
2018-06-15T13:43:48.877Z,23.11
2018-06-15T13:46:17.149Z,23.10
2018-06-15T13:48:45.443Z,23.10
2018-06-15T13:51:13.686Z,23.11
2018-06-15T13:53:41.966Z,23.10
2018-06-15T13:56:10.284Z,23.09
2018-06-15T13:58:38.511Z,23.08
2018-06-15T14:01:06.793Z,23.08
2018-06-15T14:03:35.094Z,23.09
2018-06-15T14:06:05.516Z,23.09
2018-06-15T14:08:35.327Z,23.10
2018-06-15T14:11:05.435Z,23.11
2018-06-15T14:13:35.414Z,23.12
2018-06-15T14:16:06.448Z,23.13
2018-06-15T14:18:36.190Z,23.12
2018-06-15T14:21:06.713Z,23.14
2018-06-15T14:23:36.739Z,23.15
2018-06-15T14:26:05.883Z,23.14
2018-06-15T14:28:34.879Z,23.14
2018-06-15T14:31:03.965Z,23.15
2018-06-15T14:33:32.843Z,23.15
2018-06-15T14:36:02.381Z,23.15
2018-06-15T14:38:31.482Z,23.15
2018-06-15T14:41:00.581Z,23.16
2018-06-15T14:43:29.453Z,23.16
2018-06-15T14:45:58.470Z,23.16
2018-06-15T14:48:27.445Z,23.17
2018-06-15T14:50:56.738Z,23.17
2018-06-15T14:53:26.302Z,23.17
2018-06-15T14:55:56.319Z,23.18
2018-06-15T14:58:26.170Z,23.17
2018-06-15T15:00:55.357Z,23.16
2018-06-15T15:03:24.702Z,23.16
2018-06-15T15:05:53.989Z,23.15
2018-06-15T15:08:22.439Z,23.16
2018-06-15T15:10:50.686Z,23.16
2018-06-15T15:13:18.980Z,23.16
2018-06-15T15:15:47.259Z,23.16
2018-06-15T15:18:15.552Z,23.16
2018-06-15T15:20:43.794Z,23.15
2018-06-15T15:23:12.146Z,23.15
2018-06-15T15:25:40.549Z,23.15
2018-06-15T15:28:08.826Z,23.15
2018-06-15T15:30:37.178Z,23.13
2018-06-15T15:33:05.601Z,23.12
2018-06-15T15:35:34.078Z,23.11
2018-06-15T15:38:02.390Z,23.11
2018-06-15T15:40:30.759Z,23.11
2018-06-15T15:42:59.010Z,23.11
2018-06-15T15:45:27.301Z,23.11
2018-06-15T15:47:55.593Z,23.11
2018-06-15T15:50:24.104Z,23.12
2018-06-15T15:52:52.609Z,23.12
2018-06-15T15:55:20.994Z,23.11
2018-06-15T15:57:49.292Z,23.11
2018-06-15T16:00:17.570Z,23.11
2018-06-15T16:02:46.568Z,23.11
2018-06-15T16:05:14.938Z,23.12
2018-06-15T16:07:43.194Z,23.12
2018-06-15T16:10:11.714Z,23.12
2018-06-15T16:12:40.099Z,23.13
2018-06-15T16:15:08.437Z,23.12
2018-06-15T16:17:36.709Z,23.12
2018-06-15T16:20:05.046Z,23.13
2018-06-15T16:22:33.466Z,23.13
2018-06-15T16:25:01.748Z,23.14
2018-06-15T16:27:30.039Z,23.15
2018-06-15T16:29:58.406Z,23.15
2018-06-15T16:32:26.816Z,23.14
2018-06-15T16:34:55.050Z,23.15
2018-06-15T16:37:23.442Z,23.16
2018-06-15T16:39:51.946Z,23.17
2018-06-15T16:42:20.285Z,23.17
2018-06-15T16:44:48.589Z,23.17
2018-06-15T16:47:16.874Z,23.16
2018-06-15T16:49:45.229Z,23.17
2018-06-15T16:52:13.637Z,23.17
2018-06-15T16:54:41.894Z,23.16
2018-06-15T16:57:10.160Z,23.16
2018-06-15T16:59:38.457Z,23.16
2018-06-15T17:02:06.779Z,23.15
2018-06-15T17:04:35.205Z,23.16
2018-06-15T17:07:03.474Z,23.15
2018-06-15T17:09:31.733Z,23.16
2018-06-15T17:12:00.094Z,23.17
2018-06-15T17:14:28.500Z,23.18
2018-06-15T17:16:56.787Z,23.21
2018-06-15T17:19:25.107Z,23.24
2018-06-15T17:21:53.317Z,23.25
2018-06-15T17:24:21.617Z,23.25
2018-06-15T17:26:49.878Z,23.24
2018-06-15T17:29:18.173Z,23.25
2018-06-15T17:31:46.425Z,23.25
2018-06-15T17:34:14.730Z,23.24
2018-06-15T17:36:45.862Z,23.24
2018-06-15T17:39:14.562Z,23.24
2018-06-15T17:41:43.865Z,23.24
2018-06-15T17:44:12.160Z,23.24
2018-06-15T17:46:40.394Z,23.24
2018-06-15T17:49:09.524Z,23.25
2018-06-15T17:51:37.794Z,23.27
2018-06-15T17:54:06.069Z,23.29
2018-06-15T17:56:34.318Z,23.30
2018-06-15T17:59:02.606Z,23.32
2018-06-15T18:01:30.897Z,23.34
2018-06-15T18:03:59.294Z,23.35
2018-06-15T18:06:27.637Z,23.35
2018-06-15T18:08:55.966Z,23.38
2018-06-15T18:11:24.224Z,23.36
2018-06-15T18:13:52.453Z,23.38
2018-06-15T18:16:20.731Z,23.39
2018-06-15T18:18:49.176Z,23.39
2018-06-15T18:21:17.486Z,23.39
2018-06-15T18:30:42.748Z,23.42
2018-06-15T18:33:11.118Z,23.44
2018-06-15T18:35:39.553Z,23.45
2018-06-15T18:38:08.265Z,23.45
2018-06-15T18:40:36.682Z,23.46
2018-06-15T18:43:04.958Z,23.46
2018-06-15T18:45:34.070Z,23.47
2018-06-15T18:48:02.772Z,23.48
2018-06-15T18:50:31.238Z,23.48
2018-06-15T18:52:59.538Z,23.49
2018-06-15T18:55:28.047Z,23.48
2018-06-15T18:57:56.473Z,23.49
2018-06-15T19:00:24.737Z,23.49
2018-06-15T19:02:53.069Z,23.49
2018-06-15T19:05:21.489Z,23.48
2018-06-15T19:07:49.777Z,23.48
2018-06-15T19:10:18.038Z,23.46
2018-06-15T19:12:46.375Z,23.47
2018-06-15T19:15:14.882Z,23.47
2018-06-15T19:17:43.513Z,23.47
2018-06-15T19:20:11.811Z,23.46
2018-06-15T19:22:40.241Z,23.46
2018-06-15T19:25:08.519Z,23.47
2018-06-15T19:27:36.847Z,23.47
2018-06-15T19:30:05.282Z,23.46
2018-06-15T19:32:33.786Z,23.46
2018-06-15T19:35:02.026Z,23.45
2018-06-15T19:37:33.290Z,23.45
2018-06-15T19:40:01.651Z,23.44
2018-06-15T19:42:29.966Z,23.43
2018-06-15T19:44:58.242Z,23.43
2018-06-15T19:47:28.488Z,23.42
2018-06-15T19:49:58.562Z,23.43
2018-06-15T19:52:29.927Z,23.43
2018-06-15T19:55:01.188Z,23.43
2018-06-15T19:57:31.523Z,23.43
2018-06-15T20:00:00.677Z,23.43
2018-06-15T20:02:30.406Z,23.44
2018-06-15T20:05:02.120Z,23.45
2018-06-15T20:07:31.400Z,23.45
2018-06-15T20:09:59.834Z,23.45
2018-06-15T20:12:30.626Z,23.45
2018-06-15T20:15:01.001Z,23.45
2018-06-15T20:17:29.317Z,23.46
2018-06-15T20:20:00.340Z,23.45
2018-06-15T20:22:33.057Z,23.45
2018-06-15T20:25:03.532Z,23.46
2018-06-15T20:27:34.123Z,23.45
2018-06-15T20:30:04.189Z,23.45
2018-06-15T20:32:34.644Z,23.45
2018-06-15T20:35:04.594Z,23.44
2018-06-15T20:37:35.784Z,23.44
2018-06-15T20:40:06.162Z,23.44
2018-06-15T20:42:40.154Z,23.44
2018-06-15T20:45:10.822Z,23.43
2018-06-15T20:47:39.990Z,23.45
2018-06-15T20:50:10.093Z,23.44
2018-06-15T20:52:41.894Z,23.46
2018-06-15T20:55:10.303Z,23.46
2018-06-15T20:57:42.273Z,23.46
2018-06-15T21:00:14.588Z,23.47
2018-06-15T21:02:48.413Z,23.47
2018-06-15T21:05:18.923Z,23.47
2018-06-15T21:07:48.432Z,23.48
2018-06-15T21:10:20.548Z,23.51
2018-06-15T21:12:51.499Z,23.54
2018-06-15T21:15:28.315Z,23.56
2018-06-15T21:18:02.228Z,23.59
2018-06-15T21:20:36.091Z,23.59
2018-06-15T21:23:05.868Z,23.61
2018-06-15T21:25:36.713Z,23.64
2018-06-15T21:28:05.692Z,23.65
2018-06-15T21:30:36.038Z,23.67
2018-06-15T21:33:05.074Z,23.69
2018-06-15T21:35:36.741Z,23.70
2018-06-15T21:38:07.641Z,23.71
2018-06-15T21:40:40.859Z,23.71
2018-06-15T21:43:13.456Z,23.70
2018-06-15T21:45:47.592Z,23.71
2018-06-15T21:48:18.389Z,23.71
2018-06-15T21:50:48.588Z,23.72
2018-06-15T21:53:17.852Z,23.71
2018-06-15T21:55:48.531Z,23.71
2018-06-15T21:58:17.305Z,23.72
2018-06-15T22:00:46.642Z,23.71
2018-06-15T22:03:19.912Z,23.72
2018-06-15T22:05:49.714Z,23.73
2018-06-15T22:08:22.679Z,23.74
2018-06-15T22:10:52.326Z,23.74
2018-06-15T22:13:26.848Z,23.74
2018-06-15T22:15:56.486Z,23.76
2018-06-15T22:18:29.240Z,23.75
2018-06-15T22:20:59.769Z,23.76
2018-06-15T22:23:30.853Z,23.77
2018-06-15T22:25:59.270Z,23.77
2018-06-15T22:28:27.877Z,23.77
2018-06-15T22:30:56.225Z,23.76
2018-06-15T22:33:24.813Z,23.76
2018-06-15T22:35:53.565Z,23.76
2018-06-15T22:38:22.525Z,23.75
2018-06-15T22:40:51.943Z,23.76
2018-06-15T22:43:20.762Z,23.75
2018-06-15T22:45:49.738Z,23.74
2018-06-15T22:48:18.690Z,23.74
2018-06-15T22:50:47.241Z,23.73
2018-06-15T22:53:15.769Z,23.73
2018-06-15T22:55:44.108Z,23.74
2018-06-15T22:58:13.768Z,23.76
2018-06-15T23:00:42.301Z,23.78
2018-06-15T23:03:10.807Z,23.79
2018-06-15T23:06:42.771Z,23.80
2018-06-15T23:09:12.940Z,23.83
2018-06-15T23:11:42.447Z,23.85
2018-06-15T23:14:11.217Z,23.87
2018-06-15T23:16:40.541Z,23.88
2018-06-15T23:19:08.984Z,23.89
2018-06-15T23:21:38.038Z,23.86
2018-06-15T23:24:06.801Z,23.86
2018-06-15T23:26:36.010Z,23.85
2018-06-15T23:29:05.032Z,23.87
2018-06-15T23:31:33.661Z,23.87
2018-06-15T23:34:02.719Z,23.87
2018-06-15T23:36:31.445Z,23.89
2018-06-15T23:39:00.106Z,23.89
2018-06-15T23:41:28.577Z,23.92
2018-06-15T23:43:57.350Z,23.92
2018-06-15T23:46:26.265Z,23.91
2018-06-15T23:48:55.806Z,23.92
2018-06-15T23:51:24.426Z,23.94
2018-06-15T23:53:53.086Z,23.96
2018-06-15T23:56:21.763Z,23.97
2018-06-15T23:58:50.174Z,23.97
